createdAt,value
2017-01-31T00:00:14.312Z,0
2017-01-31T00:01:24.685Z,0
2017-01-31T00:02:35.355Z,0
2017-01-31T00:03:46.029Z,0
2017-01-31T00:04:56.696Z,0
2017-01-31T00:06:07.371Z,0
2017-01-31T00:07:18.143Z,0
2017-01-31T00:08:28.807Z,0
2017-01-31T00:09:39.478Z,0
2017-01-31T00:10:50.142Z,0
2017-01-31T00:12:00.814Z,0
2017-01-31T00:13:11.592Z,0
2017-01-31T00:14:22.261Z,0
2017-01-31T00:15:32.934Z,0
2017-01-31T00:16:43.611Z,0
2017-01-31T00:17:54.286Z,0
2017-01-31T00:19:05.052Z,0
2017-01-31T00:20:15.325Z,0
2017-01-31T00:21:25.598Z,0
2017-01-31T00:22:36.269Z,0
2017-01-31T00:23:46.959Z,0
2017-01-31T00:24:57.337Z,0
2017-01-31T00:26:08.005Z,0
2017-01-31T00:27:18.678Z,0
2017-01-31T00:28:29.359Z,0
2017-01-31T00:29:40.044Z,0
2017-01-31T00:30:50.831Z,0
2017-01-31T00:32:01.504Z,0
2017-01-31T00:33:12.173Z,0
2017-01-31T00:34:22.865Z,0
2017-01-31T00:35:33.540Z,0
2017-01-31T00:36:44.314Z,0
2017-01-31T00:37:54.997Z,0
2017-01-31T00:39:05.664Z,0
2017-01-31T00:40:16.336Z,0
2017-01-31T00:41:27.009Z,0
2017-01-31T00:42:37.779Z,0
2017-01-31T00:43:48.449Z,0
2017-01-31T00:44:59.118Z,0
2017-01-31T00:46:09.824Z,0
2017-01-31T00:47:20.500Z,0
2017-01-31T00:48:31.266Z,0
2017-01-31T00:49:41.938Z,0
2017-01-31T00:50:52.609Z,0
2017-01-31T00:52:03.280Z,0
2017-01-31T00:53:13.950Z,0
2017-01-31T00:54:24.324Z,0
2017-01-31T00:55:34.997Z,0
2017-01-31T00:56:45.294Z,0
2017-01-31T00:57:55.966Z,0
2017-01-31T00:59:06.644Z,0
2017-01-31T01:00:17.026Z,0
2017-01-31T01:01:27.699Z,0
2017-01-31T01:02:38.370Z,0
2017-01-31T01:03:49.041Z,0
2017-01-31T01:04:59.712Z,0
2017-01-31T01:06:10.493Z,0
2017-01-31T01:07:20.765Z,0
2017-01-31T01:08:31.437Z,0
2017-01-31T01:09:42.109Z,0
2017-01-31T01:10:52.804Z,0
2017-01-31T01:12:03.182Z,0
2017-01-31T01:13:13.855Z,0
2017-01-31T01:14:24.521Z,0
2017-01-31T01:15:35.189Z,0
2017-01-31T01:16:45.856Z,0
2017-01-31T01:17:56.623Z,0
2017-01-31T01:19:07.296Z,0
2017-01-31T01:20:17.967Z,0
2017-01-31T01:21:28.711Z,0
2017-01-31T01:22:39.380Z,0
2017-01-31T01:23:49.762Z,0
2017-01-31T01:25:00.467Z,0
2017-01-31T01:26:10.348Z,0
2017-01-31T01:27:21.022Z,0
2017-01-31T01:28:31.301Z,0
2017-01-31T01:29:42.073Z,0
2017-01-31T01:30:52.744Z,0
2017-01-31T01:32:03.419Z,0
2017-01-31T01:33:14.092Z,0
2017-01-31T01:34:24.767Z,0
2017-01-31T01:35:35.534Z,0
2017-01-31T01:36:46.204Z,0
2017-01-31T01:37:56.872Z,0
2017-01-31T01:39:07.539Z,0
2017-01-31T01:40:17.817Z,0
2017-01-31T01:41:28.585Z,0
2017-01-31T01:42:39.254Z,0
2017-01-31T01:43:49.925Z,0
2017-01-31T01:45:00.587Z,0
2017-01-31T01:46:10.857Z,0
2017-01-31T01:47:21.620Z,0
2017-01-31T01:48:32.312Z,0
2017-01-31T01:49:42.983Z,0
2017-01-31T01:50:53.658Z,0
2017-01-31T01:52:04.330Z,0
2017-01-31T01:53:15.097Z,0
2017-01-31T01:54:25.760Z,0
2017-01-31T01:55:36.434Z,0
2017-01-31T01:56:47.135Z,0
2017-01-31T01:57:57.814Z,0
2017-01-31T01:59:08.584Z,0
2017-01-31T02:00:18.853Z,0
2017-01-31T02:01:29.517Z,0
2017-01-31T02:02:40.187Z,0
2017-01-31T02:03:50.853Z,0
2017-01-31T02:05:01.619Z,0
2017-01-31T02:06:12.286Z,0
2017-01-31T02:07:22.971Z,0
2017-01-31T02:08:33.645Z,0
2017-01-31T02:09:44.311Z,0
2017-01-31T02:10:55.079Z,0
2017-01-31T02:12:05.753Z,0
2017-01-31T02:13:16.433Z,0
2017-01-31T02:14:27.094Z,0
2017-01-31T02:15:37.762Z,0
2017-01-31T02:16:48.537Z,0
2017-01-31T02:17:59.207Z,0
2017-01-31T02:19:09.881Z,0
2017-01-31T02:20:20.554Z,0
2017-01-31T02:21:31.227Z,0
2017-01-31T02:22:42.203Z,0
2017-01-31T02:23:52.890Z,0
2017-01-31T02:25:03.567Z,0
2017-01-31T02:26:13.444Z,0
2017-01-31T02:27:24.108Z,0
2017-01-31T02:28:34.877Z,0
2017-01-31T02:29:45.543Z,0
2017-01-31T02:30:56.217Z,0
2017-01-31T02:32:06.888Z,0
2017-01-31T02:33:17.165Z,0
2017-01-31T02:34:27.943Z,0
2017-01-31T02:35:38.614Z,0
2017-01-31T02:36:49.384Z,0
2017-01-31T02:38:00.051Z,0
2017-01-31T02:39:10.322Z,0
2017-01-31T02:40:20.691Z,0
2017-01-31T02:41:30.971Z,0
2017-01-31T02:42:41.640Z,0
2017-01-31T02:43:52.324Z,0
2017-01-31T02:45:02.990Z,0
2017-01-31T02:46:14.008Z,0
2017-01-31T02:47:24.678Z,0
2017-01-31T02:48:35.349Z,0
2017-01-31T02:49:46.021Z,0
2017-01-31T02:50:56.690Z,0
2017-01-31T02:52:07.065Z,0
2017-01-31T02:53:16.952Z,0
2017-01-31T02:54:27.620Z,0
2017-01-31T02:55:38.289Z,0
2017-01-31T02:56:48.561Z,0
2017-01-31T02:57:59.329Z,0
2017-01-31T02:59:09.600Z,0
2017-01-31T03:00:19.876Z,0
2017-01-31T03:01:30.544Z,0
2017-01-31T03:02:41.218Z,0
2017-01-31T03:03:51.984Z,0
2017-01-31T03:05:02.656Z,0
2017-01-31T03:06:12.931Z,0
2017-01-31T03:07:23.600Z,0
2017-01-31T03:08:34.270Z,0
2017-01-31T03:09:45.033Z,0
2017-01-31T03:10:55.707Z,0
2017-01-31T03:12:05.983Z,0
2017-01-31T03:13:16.280Z,0
2017-01-31T03:14:26.945Z,0
2017-01-31T03:15:37.712Z,0
2017-01-31T03:16:48.383Z,0
2017-01-31T03:17:59.053Z,0
2017-01-31T03:19:09.323Z,0
2017-01-31T03:20:19.987Z,0
2017-01-31T03:21:30.760Z,0
2017-01-31T03:22:41.033Z,0
2017-01-31T03:23:51.707Z,0
2017-01-31T03:25:02.373Z,0
2017-01-31T03:26:12.246Z,0
2017-01-31T03:27:22.917Z,0
2017-01-31T03:28:33.580Z,0
2017-01-31T03:29:44.257Z,0
2017-01-31T03:30:54.920Z,0
2017-01-31T03:32:05.593Z,0
2017-01-31T03:33:15.866Z,0
2017-01-31T03:34:26.535Z,0
2017-01-31T03:35:37.204Z,0
2017-01-31T03:36:47.871Z,0
2017-01-31T03:37:58.541Z,0
2017-01-31T03:39:09.233Z,0
2017-01-31T03:40:19.900Z,0
2017-01-31T03:41:30.573Z,0
2017-01-31T03:42:41.239Z,0
2017-01-31T03:43:51.906Z,0
2017-01-31T03:45:02.586Z,0
2017-01-31T03:46:12.464Z,0
2017-01-31T03:47:23.132Z,0
2017-01-31T03:48:33.830Z,0
2017-01-31T03:49:44.501Z,0
2017-01-31T03:50:55.176Z,0
2017-01-31T03:52:05.847Z,0
2017-01-31T03:53:16.510Z,0
2017-01-31T03:54:27.175Z,0
2017-01-31T03:55:37.843Z,0
2017-01-31T03:56:48.511Z,0
2017-01-31T03:57:59.178Z,0
2017-01-31T03:59:09.458Z,0
2017-01-31T04:00:20.125Z,0
2017-01-31T04:01:30.794Z,0
2017-01-31T04:02:41.458Z,0
2017-01-31T04:03:52.126Z,0
2017-01-31T04:05:02.797Z,0
2017-01-31T04:06:13.462Z,0
2017-01-31T04:07:24.165Z,0
2017-01-31T04:08:34.831Z,0
2017-01-31T04:09:45.493Z,0
2017-01-31T04:10:56.156Z,0
2017-01-31T04:12:06.824Z,0
2017-01-31T04:13:17.488Z,0
2017-01-31T04:14:28.157Z,0
2017-01-31T04:15:38.822Z,0
2017-01-31T04:16:49.488Z,0
2017-01-31T04:18:00.153Z,0
2017-01-31T04:19:10.427Z,0
2017-01-31T04:20:20.305Z,0
2017-01-31T04:21:31.050Z,0
2017-01-31T04:22:41.732Z,0
2017-01-31T04:23:52.400Z,0
2017-01-31T04:25:03.065Z,0
2017-01-31T04:26:13.337Z,0
2017-01-31T04:27:24.001Z,0
2017-01-31T04:28:34.668Z,0
2017-01-31T04:29:45.332Z,0
2017-01-31T04:30:55.992Z,0
2017-01-31T04:32:06.261Z,0
2017-01-31T04:33:16.531Z,0
2017-01-31T04:34:26.400Z,0
2017-01-31T04:35:37.066Z,0
2017-01-31T04:36:47.738Z,0
2017-01-31T04:37:58.406Z,0
2017-01-31T04:39:09.080Z,0
2017-01-31T04:40:19.344Z,0
2017-01-31T04:41:30.015Z,0
2017-01-31T04:42:40.690Z,0
2017-01-31T04:43:51.359Z,0
2017-01-31T04:45:02.033Z,0
2017-01-31T04:46:12.701Z,0
2017-01-31T04:47:23.372Z,0
2017-01-31T04:48:34.042Z,0
2017-01-31T04:49:44.712Z,0
2017-01-31T04:50:55.382Z,0
2017-01-31T04:52:06.054Z,0
2017-01-31T04:53:16.719Z,0
2017-01-31T04:54:27.388Z,0
2017-01-31T04:55:38.051Z,0
2017-01-31T04:56:48.325Z,0
2017-01-31T04:57:58.997Z,0
2017-01-31T04:59:09.700Z,0
2017-01-31T05:00:19.572Z,0
2017-01-31T05:01:30.234Z,0
2017-01-31T05:02:40.903Z,0
2017-01-31T05:03:51.208Z,0
2017-01-31T05:05:01.906Z,0
2017-01-31T05:06:12.187Z,0
2017-01-31T05:07:22.859Z,0
2017-01-31T05:08:33.526Z,0
2017-01-31T05:09:44.196Z,0
2017-01-31T05:10:54.860Z,0
2017-01-31T05:12:05.527Z,0
2017-01-31T05:13:16.193Z,0
2017-01-31T05:14:26.862Z,0
2017-01-31T05:15:37.537Z,0
2017-01-31T05:16:48.255Z,0
2017-01-31T05:17:58.920Z,0
2017-01-31T05:19:09.192Z,0
2017-01-31T05:20:19.469Z,0
2017-01-31T05:21:29.758Z,0
2017-01-31T05:22:40.429Z,0
2017-01-31T05:23:51.091Z,0
2017-01-31T05:25:01.760Z,0
2017-01-31T05:26:12.434Z,0
2017-01-31T05:27:23.112Z,0
2017-01-31T05:28:33.779Z,0
2017-01-31T05:29:44.448Z,0
2017-01-31T05:30:55.118Z,0
2017-01-31T05:32:05.789Z,0
2017-01-31T05:33:16.459Z,0
2017-01-31T05:34:27.123Z,0
2017-01-31T05:35:37.794Z,0
2017-01-31T05:36:48.069Z,0
2017-01-31T05:37:58.736Z,0
2017-01-31T05:39:09.403Z,0
2017-01-31T05:40:20.068Z,0
2017-01-31T05:41:30.735Z,0
2017-01-31T05:42:41.396Z,0
2017-01-31T05:43:52.066Z,0
2017-01-31T05:45:02.733Z,0
2017-01-31T05:46:13.408Z,0
2017-01-31T05:47:24.075Z,0
2017-01-31T05:48:34.746Z,0
2017-01-31T05:49:45.422Z,0
2017-01-31T05:50:56.096Z,0
2017-01-31T05:52:06.767Z,0
2017-01-31T05:53:17.434Z,0
2017-01-31T05:54:27.706Z,0
2017-01-31T05:55:38.372Z,0
2017-01-31T05:56:49.042Z,0
2017-01-31T05:57:59.702Z,0
2017-01-31T05:59:10.370Z,0
2017-01-31T06:00:20.443Z,0
2017-01-31T06:01:31.112Z,0
2017-01-31T06:02:41.801Z,0
2017-01-31T06:03:52.471Z,0
2017-01-31T06:05:03.139Z,0
2017-01-31T06:06:13.810Z,0
2017-01-31T06:07:24.476Z,0
2017-01-31T06:08:35.150Z,0
2017-01-31T06:09:45.423Z,0
2017-01-31T06:10:56.090Z,0
2017-01-31T06:12:06.756Z,0
2017-01-31T06:13:17.423Z,0
2017-01-31T06:14:28.093Z,0
2017-01-31T06:15:38.774Z,0
2017-01-31T06:16:49.447Z,0
2017-01-31T06:18:00.111Z,0
2017-01-31T06:19:10.785Z,0
2017-01-31T06:20:21.450Z,0
2017-01-31T06:21:32.128Z,0
2017-01-31T06:22:42.797Z,0
2017-01-31T06:23:53.462Z,0
2017-01-31T06:25:04.128Z,0
2017-01-31T06:26:14.404Z,0
2017-01-31T06:27:25.074Z,0
2017-01-31T06:28:35.342Z,0
2017-01-31T06:29:46.008Z,0
2017-01-31T06:30:56.676Z,0
2017-01-31T06:32:07.347Z,0
2017-01-31T06:33:18.022Z,0
2017-01-31T06:34:28.687Z,0
2017-01-31T06:35:39.372Z,0
2017-01-31T06:36:50.054Z,0
2017-01-31T06:38:00.322Z,0
2017-01-31T06:39:10.593Z,0
2017-01-31T06:40:20.472Z,0
2017-01-31T06:41:30.341Z,0
2017-01-31T06:42:41.007Z,0
2017-01-31T06:43:51.673Z,0
2017-01-31T06:45:02.345Z,0
2017-01-31T06:46:12.626Z,0
2017-01-31T06:47:23.296Z,0
2017-01-31T06:48:33.962Z,0
2017-01-31T06:49:44.627Z,0
2017-01-31T06:50:54.899Z,0
2017-01-31T06:52:05.572Z,0
2017-01-31T06:53:15.445Z,0
2017-01-31T06:54:26.110Z,0
2017-01-31T06:55:36.781Z,0
2017-01-31T06:56:47.445Z,0
2017-01-31T06:57:58.153Z,0
2017-01-31T06:59:08.823Z,0
2017-01-31T07:00:19.491Z,0
2017-01-31T07:01:30.159Z,0
2017-01-31T07:02:40.435Z,0
2017-01-31T07:03:51.104Z,0
2017-01-31T07:05:01.772Z,0
2017-01-31T07:06:12.441Z,0
2017-01-31T07:07:23.114Z,0
2017-01-31T07:08:33.781Z,0
2017-01-31T07:09:44.448Z,0
2017-01-31T07:10:55.121Z,0
2017-01-31T07:12:05.780Z,0
2017-01-31T07:13:16.443Z,0
2017-01-31T07:14:26.318Z,0
2017-01-31T07:15:36.585Z,0
2017-01-31T07:16:47.264Z,0
2017-01-31T07:17:57.945Z,0
2017-01-31T07:19:08.619Z,0
2017-01-31T07:20:18.899Z,0
2017-01-31T07:21:29.569Z,0
2017-01-31T07:22:40.235Z,5
2017-01-31T07:23:50.513Z,5
2017-01-31T07:25:01.182Z,5
2017-01-31T07:26:11.875Z,5
2017-01-31T07:27:22.143Z,5
2017-01-31T07:28:32.806Z,5
2017-01-31T07:29:43.479Z,5
2017-01-31T07:30:54.142Z,5
2017-01-31T07:32:04.415Z,5
2017-01-31T07:33:15.082Z,10
2017-01-31T07:34:25.750Z,10
2017-01-31T07:35:36.420Z,10
2017-01-31T07:36:47.090Z,10
2017-01-31T07:37:57.762Z,10
2017-01-31T07:39:08.428Z,10
2017-01-31T07:40:19.099Z,15
2017-01-31T07:41:29.767Z,15
2017-01-31T07:42:40.439Z,15
2017-01-31T07:43:50.706Z,15
2017-01-31T07:45:01.370Z,15
2017-01-31T07:46:11.652Z,20
2017-01-31T07:47:22.319Z,20
2017-01-31T07:48:32.975Z,20
2017-01-31T07:49:43.651Z,20
2017-01-31T07:50:54.322Z,25
2017-01-31T07:52:04.988Z,25
2017-01-31T07:53:15.259Z,25
2017-01-31T07:54:25.924Z,25
2017-01-31T07:55:36.600Z,30
2017-01-31T07:56:47.266Z,30
2017-01-31T07:57:57.928Z,30
2017-01-31T07:59:08.593Z,35
2017-01-31T08:00:18.872Z,35
2017-01-31T08:01:29.146Z,35
2017-01-31T08:02:39.819Z,35
2017-01-31T08:03:50.089Z,40
2017-01-31T08:05:00.755Z,40
2017-01-31T08:06:11.026Z,40
2017-01-31T08:07:21.696Z,45
2017-01-31T08:08:32.358Z,45
2017-01-31T08:09:43.027Z,45
2017-01-31T08:10:53.691Z,50
2017-01-31T08:12:04.359Z,50
2017-01-31T08:13:15.026Z,55
2017-01-31T08:14:24.901Z,55
2017-01-31T08:15:35.184Z,55
2017-01-31T08:16:45.856Z,60
2017-01-31T08:17:56.519Z,60
2017-01-31T08:19:07.191Z,60
2017-01-31T08:20:17.458Z,60
2017-01-31T08:21:27.725Z,60
2017-01-31T08:22:38.394Z,65
2017-01-31T08:23:49.064Z,65
2017-01-31T08:24:59.727Z,70
2017-01-31T08:26:10.388Z,70
2017-01-31T08:27:21.054Z,75
2017-01-31T08:28:31.719Z,75
2017-01-31T08:29:42.384Z,80
2017-01-31T08:30:52.656Z,85
2017-01-31T08:32:03.344Z,85
2017-01-31T08:33:14.013Z,85
2017-01-31T08:34:24.677Z,85
2017-01-31T08:35:35.345Z,90
2017-01-31T08:36:46.016Z,95
2017-01-31T08:37:56.683Z,95
2017-01-31T08:39:07.352Z,90
2017-01-31T08:40:18.022Z,90
2017-01-31T08:41:28.694Z,90
2017-01-31T08:42:38.970Z,90
2017-01-31T08:43:49.649Z,95
2017-01-31T08:45:00.315Z,95
2017-01-31T08:46:10.582Z,95
2017-01-31T08:47:21.244Z,100
2017-01-31T08:48:31.924Z,105
2017-01-31T08:49:42.622Z,105
2017-01-31T08:50:53.288Z,105
2017-01-31T08:52:03.954Z,105
2017-01-31T08:53:14.224Z,110
2017-01-31T08:54:24.893Z,110
2017-01-31T08:55:35.564Z,110
2017-01-31T08:56:46.266Z,110
2017-01-31T08:57:56.932Z,110
2017-01-31T08:59:07.204Z,110
2017-01-31T09:00:17.473Z,110
2017-01-31T09:01:28.173Z,110
2017-01-31T09:02:38.844Z,105
2017-01-31T09:03:49.513Z,115
2017-01-31T09:05:00.178Z,110
2017-01-31T09:06:10.448Z,110
2017-01-31T09:07:20.723Z,110
2017-01-31T09:08:31.385Z,115
2017-01-31T09:09:42.048Z,115
2017-01-31T09:10:52.718Z,120
2017-01-31T09:12:03.389Z,125
2017-01-31T09:13:14.055Z,125
2017-01-31T09:14:24.726Z,125
2017-01-31T09:15:35.386Z,130
2017-01-31T09:16:46.055Z,135
2017-01-31T09:17:56.728Z,135
2017-01-31T09:19:07.393Z,135
2017-01-31T09:20:18.062Z,135
2017-01-31T09:21:28.721Z,135
2017-01-31T09:22:39.385Z,135
2017-01-31T09:23:50.061Z,140
2017-01-31T09:25:00.359Z,140
2017-01-31T09:26:11.024Z,145
2017-01-31T09:27:21.694Z,145
2017-01-31T09:28:32.364Z,150
2017-01-31T09:29:43.037Z,150
2017-01-31T09:30:53.706Z,150
2017-01-31T09:32:04.378Z,150
2017-01-31T09:33:15.042Z,155
2017-01-31T09:34:25.709Z,155
2017-01-31T09:35:35.979Z,155
2017-01-31T09:36:46.261Z,160
2017-01-31T09:37:56.955Z,165
2017-01-31T09:39:07.632Z,170
2017-01-31T09:40:18.300Z,170
2017-01-31T09:41:28.970Z,165
2017-01-31T09:42:39.640Z,170
2017-01-31T09:43:49.911Z,170
2017-01-31T09:45:00.189Z,170
2017-01-31T09:46:10.862Z,180
2017-01-31T09:47:21.532Z,180
2017-01-31T09:48:31.810Z,180
2017-01-31T09:49:42.480Z,180
2017-01-31T09:50:52.756Z,185
2017-01-31T09:52:03.422Z,180
2017-01-31T09:53:14.090Z,180
2017-01-31T09:54:24.365Z,185
2017-01-31T09:55:34.636Z,190
2017-01-31T09:56:44.906Z,195
2017-01-31T09:57:55.576Z,195
2017-01-31T09:59:06.248Z,200
2017-01-31T10:00:16.516Z,200
2017-01-31T10:01:27.186Z,200
2017-01-31T10:02:37.852Z,200
2017-01-31T10:03:48.123Z,200
2017-01-31T10:04:58.796Z,205
2017-01-31T10:06:09.468Z,200
2017-01-31T10:07:20.140Z,205
2017-01-31T10:08:30.810Z,205
2017-01-31T10:09:41.484Z,205
2017-01-31T10:10:52.150Z,210
2017-01-31T10:12:02.818Z,215
2017-01-31T10:13:13.087Z,215
2017-01-31T10:14:23.753Z,215
2017-01-31T10:15:34.022Z,220
2017-01-31T10:16:44.695Z,225
2017-01-31T10:17:55.354Z,230
2017-01-31T10:19:06.015Z,230
2017-01-31T10:20:16.682Z,235
2017-01-31T10:21:27.352Z,235
2017-01-31T10:22:38.023Z,235
2017-01-31T10:23:48.690Z,235
2017-01-31T10:24:59.362Z,230
2017-01-31T10:26:10.035Z,230
2017-01-31T10:27:20.705Z,220
2017-01-31T10:28:31.388Z,225
2017-01-31T10:29:42.053Z,225
2017-01-31T10:30:52.726Z,220
2017-01-31T10:32:02.602Z,225
2017-01-31T10:33:12.485Z,220
2017-01-31T10:34:22.764Z,220
2017-01-31T10:35:33.428Z,225
2017-01-31T10:36:44.097Z,230
2017-01-31T10:37:54.762Z,225
2017-01-31T10:39:05.436Z,230
2017-01-31T10:40:15.712Z,230
2017-01-31T10:41:26.384Z,235
2017-01-31T10:42:36.651Z,235
2017-01-31T10:43:47.324Z,230
2017-01-31T10:44:57.992Z,235
2017-01-31T10:46:08.268Z,230
2017-01-31T10:47:18.931Z,235
2017-01-31T10:48:29.604Z,235
2017-01-31T10:49:40.277Z,235
2017-01-31T10:50:50.952Z,230
2017-01-31T10:52:01.626Z,230
2017-01-31T10:53:12.303Z,225
2017-01-31T10:54:22.974Z,225
2017-01-31T10:55:33.726Z,225
2017-01-31T10:56:44.013Z,230
2017-01-31T10:57:54.683Z,230
2017-01-31T10:59:05.378Z,230
2017-01-31T11:00:16.060Z,225
2017-01-31T11:01:26.761Z,230
2017-01-31T11:02:37.036Z,230
2017-01-31T11:03:47.716Z,230
2017-01-31T11:04:58.391Z,235
2017-01-31T11:06:09.064Z,230
2017-01-31T11:07:19.337Z,235
2017-01-31T11:08:30.006Z,235
2017-01-31T11:09:40.281Z,230
2017-01-31T11:10:50.950Z,230
2017-01-31T11:12:01.626Z,230
2017-01-31T11:13:12.300Z,230
2017-01-31T11:14:22.969Z,235
2017-01-31T11:15:33.242Z,235
2017-01-31T11:16:43.913Z,230
2017-01-31T11:17:54.607Z,230
2017-01-31T11:19:05.308Z,230
2017-01-31T11:20:14.797Z,230
2017-01-31T11:21:25.486Z,230
2017-01-31T11:22:36.161Z,225
2017-01-31T11:23:46.829Z,225
2017-01-31T11:24:57.501Z,225
2017-01-31T11:26:08.184Z,225
2017-01-31T11:27:18.856Z,225
2017-01-31T11:28:29.549Z,230
2017-01-31T11:29:40.217Z,230
2017-01-31T11:30:50.500Z,230
2017-01-31T11:32:01.168Z,225
2017-01-31T11:33:11.447Z,220
2017-01-31T11:34:22.113Z,225
2017-01-31T11:35:32.783Z,230
2017-01-31T11:36:43.453Z,230
2017-01-31T11:37:54.126Z,230
2017-01-31T11:39:04.797Z,230
2017-01-31T11:40:15.094Z,230
2017-01-31T11:41:25.762Z,230
2017-01-31T11:42:36.033Z,230
2017-01-31T11:43:46.697Z,230
2017-01-31T11:44:57.376Z,230
2017-01-31T11:46:08.084Z,225
2017-01-31T11:47:18.356Z,220
2017-01-31T11:48:29.033Z,220
2017-01-31T11:49:38.942Z,220
2017-01-31T11:50:49.616Z,220
2017-01-31T11:52:00.287Z,225
2017-01-31T11:53:10.954Z,225
2017-01-31T11:54:21.629Z,225
2017-01-31T11:55:32.299Z,230
2017-01-31T11:56:42.972Z,225
2017-01-31T11:57:53.642Z,225
2017-01-31T11:59:04.316Z,220
2017-01-31T12:00:14.593Z,220
2017-01-31T12:01:25.268Z,220
2017-01-31T12:02:35.554Z,220
2017-01-31T12:03:46.221Z,215
2017-01-31T12:04:56.898Z,215
2017-01-31T12:06:06.781Z,215
2017-01-31T12:07:17.479Z,210
2017-01-31T12:08:28.168Z,210
2017-01-31T12:09:38.836Z,205
2017-01-31T12:10:49.502Z,200
2017-01-31T12:11:59.778Z,200
2017-01-31T12:13:10.053Z,205
2017-01-31T12:14:20.328Z,205
2017-01-31T12:15:31.008Z,200
2017-01-31T12:16:41.688Z,200
2017-01-31T12:17:52.356Z,195
2017-01-31T12:19:03.034Z,195
2017-01-31T12:20:13.706Z,190
2017-01-31T12:21:24.381Z,190
2017-01-31T12:22:35.050Z,190
2017-01-31T12:23:45.720Z,190
2017-01-31T12:24:56.393Z,185
2017-01-31T12:26:07.068Z,185
2017-01-31T12:27:17.749Z,185
2017-01-31T12:28:28.021Z,185
2017-01-31T12:29:38.689Z,185
2017-01-31T12:30:49.360Z,185
2017-01-31T12:31:59.635Z,185
2017-01-31T12:33:10.318Z,180
2017-01-31T12:34:20.988Z,180
2017-01-31T12:35:31.665Z,180
2017-01-31T12:36:41.938Z,185
2017-01-31T12:37:52.611Z,180
2017-01-31T12:39:03.289Z,175
2017-01-31T12:40:13.969Z,175
2017-01-31T12:41:24.647Z,175
2017-01-31T12:42:35.342Z,175
2017-01-31T12:43:46.014Z,170
2017-01-31T12:44:56.688Z,175
2017-01-31T12:46:07.365Z,175
2017-01-31T12:47:17.643Z,175
2017-01-31T12:48:28.326Z,170
2017-01-31T12:49:38.999Z,165
2017-01-31T12:50:49.672Z,165
2017-01-31T12:52:00.373Z,165
2017-01-31T12:53:11.053Z,165
2017-01-31T12:54:21.730Z,160
2017-01-31T12:55:32.000Z,155
2017-01-31T12:56:42.675Z,150
2017-01-31T12:57:53.345Z,150
2017-01-31T12:59:04.024Z,150
2017-01-31T13:00:14.297Z,150
2017-01-31T13:01:24.582Z,150
2017-01-31T13:02:35.255Z,150
2017-01-31T13:03:45.923Z,150
2017-01-31T13:04:56.596Z,150
2017-01-31T13:06:06.873Z,150
2017-01-31T13:07:17.172Z,150
2017-01-31T13:08:27.843Z,145
2017-01-31T13:09:38.515Z,140
2017-01-31T13:10:49.183Z,140
2017-01-31T13:11:59.884Z,135
2017-01-31T13:13:10.558Z,135
2017-01-31T13:14:21.227Z,135
2017-01-31T13:15:31.897Z,135
2017-01-31T13:16:42.565Z,135
2017-01-31T13:17:53.235Z,135
2017-01-31T13:19:03.908Z,135
2017-01-31T13:20:14.177Z,135
2017-01-31T13:21:24.847Z,130
2017-01-31T13:22:35.519Z,130
2017-01-31T13:23:46.187Z,125
2017-01-31T13:24:56.906Z,125
2017-01-31T13:26:07.182Z,120
2017-01-31T13:27:17.854Z,120
2017-01-31T13:28:28.131Z,120
2017-01-31T13:29:38.838Z,115
2017-01-31T13:30:49.115Z,115
2017-01-31T13:31:59.811Z,115
2017-01-31T13:33:10.085Z,115
2017-01-31T13:34:20.756Z,115
2017-01-31T13:35:30.634Z,110
2017-01-31T13:36:41.303Z,110
2017-01-31T13:37:51.971Z,105
2017-01-31T13:39:02.636Z,105
2017-01-31T13:40:13.308Z,105
2017-01-31T13:41:23.985Z,100
2017-01-31T13:42:34.655Z,100
2017-01-31T13:43:44.934Z,100
2017-01-31T13:44:55.600Z,100
2017-01-31T13:46:06.270Z,100
2017-01-31T13:47:16.957Z,95
2017-01-31T13:48:27.648Z,95
2017-01-31T13:49:37.919Z,95
2017-01-31T13:50:48.593Z,95
2017-01-31T13:51:59.268Z,90
2017-01-31T13:53:09.543Z,90
2017-01-31T13:54:20.216Z,90
2017-01-31T13:55:30.880Z,90
2017-01-31T13:56:41.554Z,90
2017-01-31T13:57:52.224Z,90
2017-01-31T13:59:02.897Z,90
2017-01-31T14:00:13.168Z,90
2017-01-31T14:01:23.832Z,85
2017-01-31T14:02:34.502Z,85
2017-01-31T14:03:45.166Z,85
2017-01-31T14:04:55.835Z,85
2017-01-31T14:06:06.504Z,80
2017-01-31T14:07:17.176Z,80
2017-01-31T14:08:27.842Z,80
2017-01-31T14:09:38.512Z,80
2017-01-31T14:10:49.193Z,80
2017-01-31T14:11:59.865Z,80
2017-01-31T14:13:10.537Z,75
2017-01-31T14:14:20.910Z,75
2017-01-31T14:15:31.573Z,75
2017-01-31T14:16:42.256Z,70
2017-01-31T14:17:52.938Z,70
2017-01-31T14:19:03.607Z,70
2017-01-31T14:20:14.278Z,70
2017-01-31T14:21:25.019Z,65
2017-01-31T14:22:35.682Z,65
2017-01-31T14:23:45.957Z,65
2017-01-31T14:24:56.622Z,65
2017-01-31T14:26:07.293Z,60
2017-01-31T14:27:17.975Z,60
2017-01-31T14:28:28.651Z,60
2017-01-31T14:29:39.319Z,55
2017-01-31T14:30:49.991Z,55
2017-01-31T14:32:00.659Z,55
2017-01-31T14:33:11.335Z,55
2017-01-31T14:34:22.011Z,50
2017-01-31T14:35:32.677Z,50
2017-01-31T14:36:43.343Z,50
2017-01-31T14:37:54.009Z,50
2017-01-31T14:39:04.679Z,45
2017-01-31T14:40:14.951Z,45
2017-01-31T14:41:25.624Z,45
2017-01-31T14:42:36.302Z,45
2017-01-31T14:43:46.603Z,40
2017-01-31T14:44:57.273Z,40
2017-01-31T14:46:07.945Z,40
2017-01-31T14:47:18.624Z,35
2017-01-31T14:48:29.295Z,35
2017-01-31T14:49:39.969Z,35
2017-01-31T14:50:50.240Z,35
2017-01-31T14:52:00.907Z,35
2017-01-31T14:53:11.586Z,30
2017-01-31T14:54:22.261Z,30
2017-01-31T14:55:32.932Z,30
2017-01-31T14:56:43.215Z,30
2017-01-31T14:57:53.889Z,30
2017-01-31T14:59:04.561Z,25
2017-01-31T15:00:14.837Z,25
2017-01-31T15:01:25.546Z,25
2017-01-31T15:02:36.219Z,25
2017-01-31T15:03:46.889Z,25
2017-01-31T15:04:57.565Z,20
2017-01-31T15:06:08.233Z,20
2017-01-31T15:07:18.511Z,20
2017-01-31T15:08:28.780Z,20
2017-01-31T15:09:39.056Z,20
2017-01-31T15:10:49.725Z,15
2017-01-31T15:11:59.604Z,15
2017-01-31T15:13:09.877Z,15
2017-01-31T15:14:20.561Z,15
2017-01-31T15:15:31.229Z,15
2017-01-31T15:16:41.899Z,10
2017-01-31T15:17:52.569Z,10
2017-01-31T15:19:03.235Z,10
2017-01-31T15:20:13.516Z,10
2017-01-31T15:21:23.797Z,10
2017-01-31T15:22:34.469Z,10
2017-01-31T15:23:45.143Z,10
2017-01-31T15:24:55.849Z,5
2017-01-31T15:26:06.528Z,5
2017-01-31T15:27:16.810Z,5
2017-01-31T15:28:27.475Z,5
2017-01-31T15:29:38.174Z,5
2017-01-31T15:30:48.443Z,5
2017-01-31T15:31:59.111Z,5
2017-01-31T15:33:09.022Z,5
2017-01-31T15:34:19.689Z,5
2017-01-31T15:35:30.353Z,0
2017-01-31T15:36:40.629Z,0
2017-01-31T15:37:50.897Z,0
2017-01-31T15:39:01.567Z,0
2017-01-31T15:40:12.247Z,0
2017-01-31T15:41:22.937Z,0
2017-01-31T15:42:33.608Z,0
2017-01-31T15:43:44.285Z,0
2017-01-31T15:44:53.766Z,0
2017-01-31T15:46:04.435Z,0
2017-01-31T15:47:14.709Z,0
2017-01-31T15:48:25.379Z,0
2017-01-31T15:49:36.050Z,0
2017-01-31T15:50:46.317Z,0
2017-01-31T15:51:56.594Z,0
2017-01-31T15:53:07.265Z,0
2017-01-31T15:54:17.537Z,0
2017-01-31T15:55:28.211Z,0
2017-01-31T15:56:38.885Z,0
2017-01-31T15:57:49.156Z,0
2017-01-31T15:58:59.436Z,0
2017-01-31T16:00:10.106Z,0
2017-01-31T16:01:20.780Z,0
2017-01-31T16:02:31.445Z,0
2017-01-31T16:03:42.118Z,0
2017-01-31T16:04:52.417Z,0
2017-01-31T16:06:03.085Z,0
2017-01-31T16:07:13.746Z,0
2017-01-31T16:08:24.017Z,0
2017-01-31T16:09:34.691Z,0
2017-01-31T16:10:45.369Z,0
2017-01-31T16:11:56.039Z,0
2017-01-31T16:13:06.698Z,0
2017-01-31T16:14:17.367Z,0
2017-01-31T16:15:28.033Z,0
2017-01-31T16:16:38.715Z,0
2017-01-31T16:17:49.388Z,0
2017-01-31T16:19:00.060Z,0
2017-01-31T16:20:10.733Z,0
2017-01-31T16:21:21.415Z,0
2017-01-31T16:22:31.287Z,0
2017-01-31T16:23:41.954Z,0
2017-01-31T16:24:52.619Z,0
2017-01-31T16:26:03.292Z,0
2017-01-31T16:27:13.962Z,0
2017-01-31T16:28:24.242Z,0
2017-01-31T16:29:34.917Z,0
2017-01-31T16:30:45.591Z,0
2017-01-31T16:31:56.257Z,0
2017-01-31T16:33:06.530Z,0
2017-01-31T16:34:17.197Z,0
2017-01-31T16:35:27.862Z,0
2017-01-31T16:36:38.135Z,0
2017-01-31T16:37:48.410Z,0
2017-01-31T16:38:59.104Z,0
2017-01-31T16:40:09.769Z,0
2017-01-31T16:41:20.442Z,0
2017-01-31T16:42:31.107Z,0
2017-01-31T16:43:41.788Z,0
2017-01-31T16:44:52.462Z,0
2017-01-31T16:46:03.127Z,0
2017-01-31T16:47:13.798Z,0
2017-01-31T16:48:24.463Z,0
2017-01-31T16:49:35.131Z,0
2017-01-31T16:50:45.800Z,0
2017-01-31T16:51:56.075Z,0
2017-01-31T16:53:06.349Z,0
2017-01-31T16:54:16.624Z,0
2017-01-31T16:55:26.895Z,0